createdAt,value
2023-01-17T00:05:11.749Z,6.67
2023-01-17T00:20:33.671Z,6.60
2023-01-17T00:35:35.928Z,6.83
2023-01-17T00:50:57.025Z,5.40
2023-01-17T01:06:17.492Z,6.37
2023-01-17T04:35:36.700Z,9.57
2023-01-17T04:50:39.676Z,9.73
2023-01-17T05:05:43.519Z,9.93
2023-01-17T05:20:45.426Z,9.00
2023-01-17T05:35:47.655Z,8.23
2023-01-17T05:50:49.520Z,9.87
2023-01-17T06:05:51.447Z,10.97
2023-01-17T06:20:54.883Z,9.80
2023-01-17T06:35:56.918Z,8.03
2023-01-17T06:50:58.788Z,9.40
2023-01-17T07:06:04.954Z,11.30
2023-01-17T07:36:14.196Z,12.60
2023-01-17T07:51:16.340Z,13.73
2023-01-17T08:06:22.244Z,12.93
2023-01-17T08:21:24.641Z,12.17
2023-01-17T08:36:28.391Z,13.40
2023-01-17T08:51:31.690Z,11.77
2023-01-17T13:34:53.263Z,12.57
2023-01-17T13:49:56.861Z,11.70
2023-01-17T14:05:24.272Z,15.30
2023-01-17T14:20:26.032Z,15.70
2023-01-17T14:35:34.903Z,13.63
2023-01-17T14:50:39.520Z,14.87
2023-01-17T15:05:43.581Z,13.77
2023-01-17T15:20:58.286Z,12.77
2023-01-17T15:36:37.086Z,14.80
2023-01-17T15:51:39.432Z,13.17
2023-01-17T16:06:45.920Z,14.10
2023-01-17T16:21:48.581Z,14.33
2023-01-17T16:37:06.841Z,14.37
2023-01-17T16:52:08.669Z,14.63
2023-01-17T17:07:10.527Z,13.27
2023-01-17T17:22:12.331Z,14.80
2023-01-17T17:37:16.794Z,11.93
2023-01-17T17:52:18.634Z,12.17
2023-01-17T18:07:20.563Z,14.83
2023-01-17T18:22:22.452Z,13.80
2023-01-17T18:37:24.716Z,14.23
2023-01-17T18:52:26.527Z,13.27
2023-01-17T19:07:29.860Z,15.70
2023-01-17T22:56:47.230Z,15.80
2023-01-17T23:11:55.334Z,16.67
2023-01-17T23:27:15.560Z,15.73
2023-01-17T23:42:36.121Z,13.33
2023-01-17T23:57:38.510Z,15.17
